Milaca, Minnesota
Current Conditions -  °F | °C
As of 1:14 AM on Wednesday 22 Oct 2014 (Local Time) from KPNM Reporting Station
Clear Clear  
Wind Chill: 41°   Ceiling: Unl
Heat Index: 45°   Visibility: 10mi
Dew Point: 37°   Wind: 6mph
Humidity: 76%   Direction: 120°ESE
Pressure: 30.15"   Gusts: NA
Location:  45.76°N, 93.65°W
Report Text: KPNM 220614Z AUTO 12005KT 10SM CLR 07/03 A3015 RMK AO2
Loading
Personal Weather Stations






























Interactive Weather Map
Tropical Storm Tracking
New forecast layout! Learn more

10-Day Weather Forecast

Advertisements
Track Severe Weather on mobile